sensor_id;sensor_type;location;lat;lon;timestamp;P1;durP1;ratioP1;P2;durP2;ratioP2
19434;SDS011;9853;50.848;4.108;2023-03-05T07:10:04;23.23;;;11.57;;
19434;SDS011;9853;50.848;4.108;2023-03-05T07:22:29;21.40;;;10.27;;
19434;SDS011;9853;50.848;4.108;2023-03-05T07:25:35;14.53;;;8.80;;
19434;SDS011;9853;50.848;4.108;2023-03-05T07:28:13;15.43;;;10.57;;
19434;SDS011;9853;50.848;4.108;2023-03-05T07:34:49;14.53;;;8.77;;
19434;SDS011;9853;50.848;4.108;2023-03-05T07:51:02;17.60;;;9.70;;
19434;SDS011;9853;50.848;4.108;2023-03-05T07:53:52;14.80;;;9.27;;
19434;SDS011;9853;50.848;4.108;2023-03-05T07:56:53;20.00;;;10.30;;
19434;SDS011;9853;50.848;4.108;2023-03-05T08:12:28;16.07;;;9.20;;
19434;SDS011;9853;50.848;4.108;2023-03-05T08:27:35;18.23;;;13.43;;
19434;SDS011;9853;50.848;4.108;2023-03-05T08:39:33;75.03;;;43.27;;
19434;SDS011;9853;50.848;4.108;2023-03-05T08:52:42;26.20;;;15.97;;
19434;SDS011;9853;50.848;4.108;2023-03-05T08:59:00;10.20;;;7.03;;
19434;SDS011;9853;50.848;4.108;2023-03-05T09:10:47;9.90;;;5.23;;
19434;SDS011;9853;50.848;4.108;2023-03-05T09:13:10;10.40;;;6.47;;
19434;SDS011;9853;50.848;4.108;2023-03-05T09:29:05;8.70;;;5.97;;
19434;SDS011;9853;50.848;4.108;2023-03-05T09:35:26;6.37;;;4.10;;
19434;SDS011;9853;50.848;4.108;2023-03-05T10:07:25;4.33;;;1.70;;
19434;SDS011;9853;50.848;4.108;2023-03-05T10:58:59;3.67;;;2.40;;
19434;SDS011;9853;50.848;4.108;2023-03-05T11:04:53;6.67;;;3.77;;
19434;SDS011;9853;50.848;4.108;2023-03-05T11:12:46;4.03;;;2.23;;
19434;SDS011;9853;50.848;4.108;2023-03-05T11:21:09;4.17;;;2.40;;
19434;SDS011;9853;50.848;4.108;2023-03-05T11:23:31;6.83;;;3.07;;
19434;SDS011;9853;50.848;4.108;2023-03-05T11:26:17;6.83;;;2.23;;
19434;SDS011;9853;50.848;4.108;2023-03-05T11:28:41;23.57;;;15.90;;
19434;SDS011;9853;50.848;4.108;2023-03-05T11:31:33;7.23;;;4.00;;
19434;SDS011;9853;50.848;4.108;2023-03-05T11:33:37;6.87;;;4.40;;
19434;SDS011;9853;50.848;4.108;2023-03-05T11:36:21;5.30;;;3.20;;
19434;SDS011;9853;50.848;4.108;2023-03-05T11:38:51;3.60;;;2.50;;
19434;SDS011;9853;50.848;4.108;2023-03-05T11:41:10;7.30;;;3.63;;
19434;SDS011;9853;50.848;4.108;2023-03-05T11:43:43;4.88;;;2.65;;
19434;SDS011;9853;50.848;4.108;2023-03-05T11:46:01;3.92;;;2.58;;
19434;SDS011;9853;50.848;4.108;2023-03-05T11:48:59;4.23;;;2.00;;
19434;SDS011;9853;50.848;4.108;2023-03-05T11:55:34;2.57;;;1.50;;
19434;SDS011;9853;50.848;4.108;2023-03-05T11:58:34;7.10;;;1.60;;
19434;SDS011;9853;50.848;4.108;2023-03-05T12:00:56;3.07;;;1.50;;
19434;SDS011;9853;50.848;4.108;2023-03-05T12:06:56;3.53;;;1.97;;
19434;SDS011;9853;50.848;4.108;2023-03-05T12:09:20;7.97;;;2.37;;
19434;SDS011;9853;50.848;4.108;2023-03-05T12:11:47;4.60;;;1.90;;
19434;SDS011;9853;50.848;4.108;2023-03-05T12:51:10;2.87;;;0.90;;
19434;SDS011;9853;50.848;4.108;2023-03-05T13:11:17;0.77;;;0.50;;
19434;SDS011;9853;50.848;4.108;2023-03-05T13:17:28;1.93;;;0.70;;
19434;SDS011;9853;50.848;4.108;2023-03-05T13:20:02;2.37;;;0.70;;
19434;SDS011;9853;50.848;4.108;2023-03-05T13:26:11;1.90;;;0.83;;
19434;SDS011;9853;50.848;4.108;2023-03-05T13:31:24;1.73;;;0.40;;
19434;SDS011;9853;50.848;4.108;2023-03-05T13:34:10;0.60;;;0.53;;
19434;SDS011;9853;50.848;4.108;2023-03-05T13:36:43;2.20;;;1.00;;
19434;SDS011;9853;50.848;4.108;2023-03-05T13:39:32;2.03;;;0.50;;
19434;SDS011;9853;50.848;4.108;2023-03-05T13:42:18;3.30;;;0.60;;
19434;SDS011;9853;50.848;4.108;2023-03-05T13:45:19;2.07;;;0.80;;
19434;SDS011;9853;50.848;4.108;2023-03-05T13:47:55;1.73;;;0.67;;
19434;SDS011;9853;50.848;4.108;2023-03-05T13:53:44;3.47;;;1.73;;
19434;SDS011;9853;50.848;4.108;2023-03-05T13:59:14;6.40;;;2.80;;
19434;SDS011;9853;50.848;4.108;2023-03-05T14:02:18;2.40;;;1.10;;
19434;SDS011;9853;50.848;4.108;2023-03-05T14:05:35;2.93;;;1.80;;
19434;SDS011;9853;50.848;4.108;2023-03-05T14:08:12;3.90;;;2.00;;
19434;SDS011;9853;50.848;4.108;2023-03-05T14:11:35;2.27;;;0.83;;
19434;SDS011;9853;50.848;4.108;2023-03-05T14:14:18;2.53;;;0.97;;
19434;SDS011;9853;50.848;4.108;2023-03-05T14:21:08;2.13;;;1.23;;
19434;SDS011;9853;50.848;4.108;2023-03-05T14:24:23;7.07;;;1.67;;
19434;SDS011;9853;50.848;4.108;2023-03-05T14:26:53;2.33;;;1.30;;
19434;SDS011;9853;50.848;4.108;2023-03-05T14:36:35;8.20;;;2.83;;
19434;SDS011;9853;50.848;4.108;2023-03-05T14:44:31;6.30;;;1.67;;
19434;SDS011;9853;50.848;4.108;2023-03-05T14:47:57;3.57;;;1.47;;
19434;SDS011;9853;50.848;4.108;2023-03-05T14:57:32;2.73;;;1.40;;
19434;SDS011;9853;50.848;4.108;2023-03-05T15:04:51;5.03;;;1.77;;
19434;SDS011;9853;50.848;4.108;2023-03-05T15:14:28;6.20;;;2.13;;
19434;SDS011;9853;50.848;4.108;2023-03-05T15:34:11;7.47;;;2.00;;
19434;SDS011;9853;50.848;4.108;2023-03-05T15:37:02;8.20;;;2.43;;
19434;SDS011;9853;50.848;4.108;2023-03-05T15:43:50;10.50;;;2.73;;
19434;SDS011;9853;50.848;4.108;2023-03-05T15:46:36;6.77;;;2.03;;
19434;SDS011;9853;50.848;4.108;2023-03-05T15:49:46;8.87;;;2.33;;
19434;SDS011;9853;50.848;4.108;2023-03-05T15:53:08;8.37;;;2.70;;
19434;SDS011;9853;50.848;4.108;2023-03-05T15:56:21;10.40;;;2.93;;
19434;SDS011;9853;50.848;4.108;2023-03-05T15:59:13;5.10;;;2.63;;
19434;SDS011;9853;50.848;4.108;2023-03-05T16:07:28;6.97;;;3.60;;
19434;SDS011;9853;50.848;4.108;2023-03-05T16:15:30;13.63;;;7.00;;
19434;SDS011;9853;50.848;4.108;2023-03-05T16:26:59;7.93;;;2.70;;
19434;SDS011;9853;50.848;4.108;2023-03-05T16:30:13;12.53;;;4.10;;
19434;SDS011;9853;50.848;4.108;2023-03-05T17:07:17;13.00;;;3.97;;
19434;SDS011;9853;50.848;4.108;2023-03-05T17:10:41;18.43;;;7.90;;
19434;SDS011;9853;50.848;4.108;2023-03-05T17:14:26;11.07;;;4.70;;
19434;SDS011;9853;50.848;4.108;2023-03-05T17:16:53;14.27;;;6.50;;
19434;SDS011;9853;50.848;4.108;2023-03-05T17:23:32;12.07;;;4.80;;
19434;SDS011;9853;50.848;4.108;2023-03-05T17:26:57;8.87;;;5.30;;
19434;SDS011;9853;50.848;4.108;2023-03-05T17:30:16;11.70;;;4.10;;
19434;SDS011;9853;50.848;4.108;2023-03-05T18:08:52;13.30;;;6.70;;
19434;SDS011;9853;50.848;4.108;2023-03-05T18:15:16;11.83;;;6.80;;
19434;SDS011;9853;50.848;4.108;2023-03-05T18:25:21;23.27;;;12.23;;
19434;SDS011;9853;50.848;4.108;2023-03-05T18:28:25;16.70;;;9.10;;
19434;SDS011;9853;50.848;4.108;2023-03-05T18:31:33;18.13;;;10.33;;
19434;SDS011;9853;50.848;4.108;2023-03-05T18:44:31;16.70;;;9.50;;
19434;SDS011;9853;50.848;4.108;2023-03-05T18:57:00;18.13;;;8.90;;
19434;SDS011;9853;50.848;4.108;2023-03-05T19:06:44;39.00;;;26.00;;
19434;SDS011;9853;50.848;4.108;2023-03-05T19:09:46;40.23;;;26.20;;
19434;SDS011;9853;50.848;4.108;2023-03-05T19:12:41;44.20;;;22.30;;
19434;SDS011;9853;50.848;4.108;2023-03-05T19:19:17;25.80;;;15.37;;
19434;SDS011;9853;50.848;4.108;2023-03-05T19:22:10;22.13;;;11.60;;
19434;SDS011;9853;50.848;4.108;2023-03-05T19:25:20;65.23;;;30.37;;
19434;SDS011;9853;50.848;4.108;2023-03-05T19:28:26;40.47;;;19.37;;
19434;SDS011;9853;50.848;4.108;2023-03-05T19:31:16;38.10;;;18.90;;
19434;SDS011;9853;50.848;4.108;2023-03-05T19:34:41;21.73;;;13.53;;
19434;SDS011;9853;50.848;4.108;2023-03-05T19:48:03;57.07;;;24.70;;
19434;SDS011;9853;50.848;4.108;2023-03-05T19:50:56;16.77;;;9.83;;
19434;SDS011;9853;50.848;4.108;2023-03-05T19:53:49;29.37;;;15.30;;
19434;SDS011;9853;50.848;4.108;2023-03-05T20:00:11;29.33;;;17.53;;
19434;SDS011;9853;50.848;4.108;2023-03-05T20:09:29;26.70;;;12.43;;
19434;SDS011;9853;50.848;4.108;2023-03-05T20:18:46;25.13;;;13.90;;
19434;SDS011;9853;50.848;4.108;2023-03-05T20:21:20;27.83;;;13.40;;
19434;SDS011;9853;50.848;4.108;2023-03-05T20:23:58;27.67;;;14.40;;
19434;SDS011;9853;50.848;4.108;2023-03-05T20:26:09;24.47;;;14.67;;
19434;SDS011;9853;50.848;4.108;2023-03-05T20:32:11;29.87;;;15.73;;
19434;SDS011;9853;50.848;4.108;2023-03-05T20:34:49;30.57;;;16.07;;
19434;SDS011;9853;50.848;4.108;2023-03-05T20:37:46;33.37;;;18.20;;
19434;SDS011;9853;50.848;4.108;2023-03-05T20:40:25;29.17;;;17.00;;
19434;SDS011;9853;50.848;4.108;2023-03-05T20:43:24;35.03;;;18.07;;
19434;SDS011;9853;50.848;4.108;2023-03-05T20:45:46;30.70;;;19.10;;
19434;SDS011;9853;50.848;4.108;2023-03-05T20:48:46;32.20;;;17.77;;
19434;SDS011;9853;50.848;4.108;2023-03-05T20:50:55;36.00;;;19.53;;
19434;SDS011;9853;50.848;4.108;2023-03-05T20:53:23;35.70;;;19.20;;
19434;SDS011;9853;50.848;4.108;2023-03-05T20:55:40;37.07;;;21.27;;
19434;SDS011;9853;50.848;4.108;2023-03-05T20:58:07;33.57;;;19.60;;
19434;SDS011;9853;50.848;4.108;2023-03-05T21:00:24;39.70;;;21.77;;
19434;SDS011;9853;50.848;4.108;2023-03-05T21:02:44;31.87;;;19.00;;
19434;SDS011;9853;50.848;4.108;2023-03-05T21:04:56;40.57;;;20.27;;
19434;SDS011;9853;50.848;4.108;2023-03-05T21:07:00;35.73;;;19.73;;
19434;SDS011;9853;50.848;4.108;2023-03-05T21:09:20;34.53;;;19.63;;
19434;SDS011;9853;50.848;4.108;2023-03-05T21:12:02;34.03;;;18.53;;
19434;SDS011;9853;50.848;4.108;2023-03-05T21:14:24;34.67;;;20.13;;
19434;SDS011;9853;50.848;4.108;2023-03-05T21:16:47;36.07;;;19.67;;
19434;SDS011;9853;50.848;4.108;2023-03-05T21:19:51;35.10;;;19.30;;
19434;SDS011;9853;50.848;4.108;2023-03-05T21:22:08;33.00;;;19.17;;
19434;SDS011;9853;50.848;4.108;2023-03-05T21:24:40;42.43;;;19.73;;
19434;SDS011;9853;50.848;4.108;2023-03-05T21:27:45;35.73;;;19.77;;
19434;SDS011;9853;50.848;4.108;2023-03-05T21:30:40;34.47;;;19.40;;
19434;SDS011;9853;50.848;4.108;2023-03-05T21:33:11;34.73;;;19.93;;
19434;SDS011;9853;50.848;4.108;2023-03-05T21:35:29;37.20;;;20.40;;
19434;SDS011;9853;50.848;4.108;2023-03-05T21:37:51;38.73;;;20.83;;
19434;SDS011;9853;50.848;4.108;2023-03-05T21:41:01;33.60;;;19.43;;
19434;SDS011;9853;50.848;4.108;2023-03-05T21:43:26;48.83;;;21.63;;
19434;SDS011;9853;50.848;4.108;2023-03-05T21:45:38;39.67;;;20.60;;
19434;SDS011;9853;50.848;4.108;2023-03-05T21:48:06;42.50;;;21.03;;
19434;SDS011;9853;50.848;4.108;2023-03-05T21:50:33;45.00;;;22.40;;
19434;SDS011;9853;50.848;4.108;2023-03-05T21:53:15;42.47;;;22.67;;
19434;SDS011;9853;50.848;4.108;2023-03-05T21:56:24;44.70;;;22.97;;
19434;SDS011;9853;50.848;4.108;2023-03-05T21:59:26;42.77;;;21.63;;
19434;SDS011;9853;50.848;4.108;2023-03-05T22:02:01;39.80;;;20.47;;
19434;SDS011;9853;50.848;4.108;2023-03-05T22:04:22;34.50;;;20.57;;
19434;SDS011;9853;50.848;4.108;2023-03-05T22:06:57;35.33;;;19.47;;
19434;SDS011;9853;50.848;4.108;2023-03-05T22:09:06;38.87;;;20.53;;
19434;SDS011;9853;50.848;4.108;2023-03-05T22:11:16;41.40;;;20.90;;
19434;SDS011;9853;50.848;4.108;2023-03-05T22:13:31;38.23;;;20.47;;
19434;SDS011;9853;50.848;4.108;2023-03-05T22:16:18;40.27;;;21.23;;
19434;SDS011;9853;50.848;4.108;2023-03-05T22:18:40;38.03;;;20.27;;
19434;SDS011;9853;50.848;4.108;2023-03-05T22:23:26;36.83;;;20.53;;
19434;SDS011;9853;50.848;4.108;2023-03-05T22:29:03;39.90;;;20.43;;
19434;SDS011;9853;50.848;4.108;2023-03-05T22:31:56;43.27;;;20.93;;
19434;SDS011;9853;50.848;4.108;2023-03-05T22:34:18;38.10;;;20.37;;
19434;SDS011;9853;50.848;4.108;2023-03-05T22:36:48;40.97;;;21.30;;
19434;SDS011;9853;50.848;4.108;2023-03-05T22:39:21;42.87;;;21.67;;
19434;SDS011;9853;50.848;4.108;2023-03-05T22:41:42;42.40;;;22.00;;
19434;SDS011;9853;50.848;4.108;2023-03-05T22:44:03;40.67;;;21.20;;
19434;SDS011;9853;50.848;4.108;2023-03-05T22:46:55;38.03;;;21.13;;
19434;SDS011;9853;50.848;4.108;2023-03-05T22:49:59;45.43;;;21.80;;
19434;SDS011;9853;50.848;4.108;2023-03-05T22:55:01;37.83;;;20.20;;
19434;SDS011;9853;50.848;4.108;2023-03-05T22:57:43;36.30;;;21.80;;
19434;SDS011;9853;50.848;4.108;2023-03-05T23:00:10;38.43;;;21.30;;
19434;SDS011;9853;50.848;4.108;2023-03-05T23:02:34;43.13;;;22.07;;
19434;SDS011;9853;50.848;4.108;2023-03-05T23:05:07;41.90;;;21.73;;
19434;SDS011;9853;50.848;4.108;2023-03-05T23:07:32;43.97;;;22.43;;
19434;SDS011;9853;50.848;4.108;2023-03-05T23:10:02;34.43;;;22.07;;
19434;SDS011;9853;50.848;4.108;2023-03-05T23:12:41;39.87;;;22.63;;
19434;SDS011;9853;50.848;4.108;2023-03-05T23:15:04;41.37;;;22.70;;
19434;SDS011;9853;50.848;4.108;2023-03-05T23:17:29;41.37;;;22.23;;
19434;SDS011;9853;50.848;4.108;2023-03-05T23:19:48;38.23;;;22.07;;
19434;SDS011;9853;50.848;4.108;2023-03-05T23:22:21;38.47;;;21.13;;
19434;SDS011;9853;50.848;4.108;2023-03-05T23:25:12;40.20;;;21.03;;
19434;SDS011;9853;50.848;4.108;2023-03-05T23:27:22;41.67;;;21.80;;
19434;SDS011;9853;50.848;4.108;2023-03-05T23:29:40;42.63;;;22.43;;
19434;SDS011;9853;50.848;4.108;2023-03-05T23:32:30;42.67;;;21.60;;
19434;SDS011;9853;50.848;4.108;2023-03-05T23:35:03;37.60;;;21.03;;
19434;SDS011;9853;50.848;4.108;2023-03-05T23:37:14;43.57;;;22.50;;
19434;SDS011;9853;50.848;4.108;2023-03-05T23:39:18;38.60;;;21.53;;
19434;SDS011;9853;50.848;4.108;2023-03-05T23:41:28;43.50;;;21.83;;
19434;SDS011;9853;50.848;4.108;2023-03-05T23:43:30;37.30;;;21.37;;
19434;SDS011;9853;50.848;4.108;2023-03-05T23:45:44;43.00;;;22.63;;
19434;SDS011;9853;50.848;4.108;2023-03-05T23:51:28;41.40;;;22.17;;
19434;SDS011;9853;50.848;4.108;2023-03-05T23:54:39;42.10;;;22.60;;
19434;SDS011;9853;50.848;4.108;2023-03-05T23:57:10;40.83;;;21.97;;
